Time;durP1;ratioP1;P1;durP2;ratioP2;P2;SDS_P1;SDS_P2;PMS_P1;PMS_P2;Temp;Humidity;BMP_temperature;BMP_pressure;BME280_temperature;BME280_humidity;BME280_pressure;Samples;Min_cycle;Max_cycle;Signal;HPM_P1;HPM_P2
2021/08/12 00:01:38;;;;;;;;;;;;;;;;;;5054031;28;20394;-81
2021/08/12 00:04:06;;;;;;;;;;;;;;;;;;5078720;28;19924;-83
2021/08/12 00:06:34;;;;;;;;;;;;;;;;;;5062066;28;19943;-81
2021/08/12 00:09:04;;;;;;;;;;;;;;;;;;5079982;28;19924;-83
2021/08/12 00:11:32;;;;;;;;;;;;;;;;;;5058756;28;19931;-84
2021/08/12 00:14:01;;;;;;;;;;;;;;;;;;5071928;28;19923;-82
2021/08/12 00:16:29;;;;;;;;;;;;;;;;;;5061442;28;19924;-83
2021/08/12 00:18:57;;;;;;;;;;;;;;;;;;5084135;28;20435;-83
2021/08/12 00:21:26;;;;;;;;;;;;;;;;;;5077922;28;19935;-81
2021/08/12 00:23:54;;;;;;;;;;;;;;;;;;5079401;28;20389;-81
2021/08/12 00:26:23;;;;;;;;;;;;;;;;;;5090200;28;19931;-81
2021/08/12 00:28:52;;;;;;;;;;;;;;;;;;5061112;28;19924;-80
2021/08/12 00:31:20;;;;;;;;;;;;;;;;;;5059747;28;19924;-82
2021/08/12 00:33:49;;;;;;;;;;;;;;;;;;5050438;28;20297;-81
2021/08/12 00:36:17;;;;;;;;;;;;;;;;;;5064463;28;20386;-82
2021/08/12 00:38:46;;;;;;;;;;;;;;;;;;5050730;28;20309;-82
2021/08/12 00:41:14;;;;;;;;;;;;;;;;;;5096257;28;19951;-82
2021/08/12 00:43:44;;;;;;;;;;;;;;;;;;5066489;28;19928;-83
2021/08/12 00:46:12;;;;;;;;;;;;;;;;;;5060641;28;19924;-81
2021/08/12 00:48:41;;;;;;;;;;;;;;;;;;5081277;28;20397;-82
2021/08/12 00:51:09;;;;;;;;;;;;;;;;;;5060239;28;19924;-81
2021/08/12 00:53:37;;;;;;;;;;;;;;;;;;5065430;28;20448;-82
2021/08/12 00:56:07;;;;;;;;;;;;;;;;;;5055197;28;19928;-85
2021/08/12 00:58:36;;;;;;;;;;;;;;;;;;5059586;28;19961;-82
2021/08/12 01:01:06;;;;;;;;;;;;;;;;;;5068719;28;20309;-81
2021/08/12 01:03:34;;;;;;;;;;;;;;;;;;5082249;28;19924;-84
2021/08/12 01:06:03;;;;;;;;;;;;;;;;;;5058278;28;19939;-82
2021/08/12 01:08:34;;;;;;;;;;;;;;;;;;5063154;28;20189;-82
2021/08/12 01:11:06;;;;;;;;;;;;;;;;;;5062782;28;19931;-86
2021/08/12 01:13:41;;;;;;;;;;;;;;;;;;5070803;28;20298;-82
2021/08/12 01:16:11;;;;;;;;;;;;;;;;;;5061591;28;19931;-83
2021/08/12 01:18:40;;;;;;;;;;;;;;;;;;5079281;28;19924;-82
2021/08/12 01:21:10;;;;;;;;;;;;;;;;;;5059572;28;19932;-82
2021/08/12 01:23:39;;;;;;;;;;;;;;;;;;5061337;28;19924;-82
2021/08/12 01:26:08;;;;;;;;;;;;;;;;;;5063569;28;19925;-82
2021/08/12 01:28:37;;;;;;;;;;;;;;;;;;5092577;28;19927;-81
2021/08/12 01:31:14;;;;;;;;;;;;;;;;;;5075308;28;19932;-81
2021/08/12 01:33:45;;;;;;;;;;;;;;;;;;5051267;28;19947;-82
2021/08/12 01:36:15;;;;;;;;;;;;;;;;;;5075411;28;19931;-83
2021/08/12 01:38:43;;;;;;;;;;;;;;;;;;5061288;28;19931;-83
2021/08/12 01:41:12;;;;;;;;;;;;;;;;;;5069812;28;19923;-83
2021/08/12 01:43:41;;;;;;;;;;;;;;;;;;5061489;28;19931;-81
2021/08/12 01:46:09;;;;;;;;;;;;;;;;;;5058212;28;19924;-82
2021/08/12 01:48:38;;;;;;;;;;;;;;;;;;5070783;28;20290;-84
2021/08/12 01:51:07;;;;;;;;;;;;;;;;;;5060722;28;20287;-82
2021/08/12 01:53:37;;;;;;;;;;;;;;;;;;5058791;28;19924;-84
2021/08/12 01:56:06;;;;;;;;;;;;;;;;;;5044120;28;20309;-83
2021/08/12 01:58:34;;;;;;;;;;;;;;;;;;5054728;28;19924;-81
2021/08/12 02:01:03;;;;;;;;;;;;;;;;;;5045130;28;19924;-81
2021/08/12 02:03:34;;;;;;;;;;;;;;;;;;5068396;28;19924;-80
2021/08/12 02:06:02;;;;;;;;;;;;;;;;;;5061714;28;19928;-82
2021/08/12 02:08:31;;;;;;;;;;;;;;;;;;5067511;28;19935;-81
2021/08/12 02:11:01;;;;;;;;;;;;;;;;;;5060808;28;19924;-80
2021/08/12 02:13:31;;;;;;;;;;;;;;;;;;5057615;28;19924;-81
2021/08/12 02:16:00;;;;;;;;;;;;;;;;;;5060786;28;19949;-80
2021/08/12 02:18:28;;;;;;;;;;;;;;;;;;5065560;28;19928;-83
2021/08/12 02:21:00;;;;;;;;;;;;;;;;;;5093763;28;19935;-80
2021/08/12 02:23:28;;;;;;;;;;;;;;;;;;5061489;28;20394;-81
2021/08/12 02:25:57;;;;;;;;;;;;;;;;;;5069351;28;19939;-85
2021/08/12 02:28:27;;;;;;;;;;;;;;;;;;5056853;28;19924;-81
2021/08/12 02:30:55;;;;;;;;;;;;;;;;;;5069541;28;19946;-85
2021/08/12 02:33:27;;;;;;;;;;;;;;;;;;5074630;28;19932;-80
2021/08/12 02:35:55;;;;;;;;;;;;;;;;;;5082472;28;19931;-82
2021/08/12 02:38:24;;;;;;;;;;;;;;;;;;5053401;28;19924;-83
2021/08/12 02:40:52;;;;;;;;;;;;;;;;;;5050714;28;19935;-82
2021/08/12 02:43:21;;;;;;;;;;;;;;;;;;5067697;28;19924;-83
2021/08/12 02:45:50;;;;;;;;;;;;;;;;;;5062230;28;19928;-81
2021/08/12 02:48:20;;;;;;;;;;;;;;;;;;5073714;28;19924;-81
2021/08/12 02:50:48;;;;;;;;;;;;;;;;;;5078989;28;19939;-81
2021/08/12 02:53:17;;;;;;;;;;;;;;;;;;5064762;28;19924;-81
2021/08/12 02:55:45;;;;;;;;;;;;;;;;;;5072730;28;19931;-82
2021/08/12 02:58:13;;;;;;;;;;;;;;;;;;5075052;28;19924;-84
2021/08/12 03:00:42;;;;;;;;;;;;;;;;;;5090591;28;20004;-81
2021/08/12 03:03:13;;;;;;;;;;;;;;;;;;5076209;28;19924;-83
2021/08/12 03:05:42;;;;;;;;;;;;;;;;;;5060792;28;19925;-82
2021/08/12 03:08:12;;;;;;;;;;;;;;;;;;5078530;28;20381;-80
2021/08/12 03:10:41;;;;;;;;;;;;;;;;;;5047835;28;20492;-80
2021/08/12 03:13:10;;;;;;;;;;;;;;;;;;5071080;28;19931;-81
2021/08/12 03:15:38;;;;;;;;;;;;;;;;;;5091570;28;19928;-85
2021/08/12 03:18:07;;;;;;;;;;;;;;;;;;5063689;28;20294;-80
2021/08/12 03:20:39;;;;;;;;;;;;;;;;;;5042908;28;20007;-81
2021/08/12 03:23:07;;;;;;;;;;;;;;;;;;5062162;28;19923;-81
2021/08/12 03:25:35;;;;;;;;;;;;;;;;;;5065134;28;19924;-80
2021/08/12 03:28:05;;;;;;;;;;;;;;;;;;5066222;28;19924;-80
2021/08/12 03:30:33;;;;;;;;;;;;;;;;;;5077299;28;19932;-83
2021/08/12 03:33:01;;;;;;;;;;;;;;;;;;5058422;28;19929;-81
2021/08/12 03:35:30;;;;;;;;;;;;;;;;;;5063033;28;19931;-81
2021/08/12 03:37:59;;;;;;;;;;;;;;;;;;5091428;28;19924;-80
2021/08/12 03:40:28;;;;;;;;;;;;;;;;;;5055126;28;19924;-81
2021/08/12 03:42:56;;;;;;;;;;;;;;;;;;5092942;28;20304;-81
2021/08/12 03:45:25;;;;;;;;;;;;;;;;;;5062336;28;20144;-80
2021/08/12 03:47:54;;;;;;;;;;;;;;;;;;5080562;28;19924;-81
2021/08/12 03:50:23;;;;;;;;;;;;;;;;;;5092165;28;19928;-81
2021/08/12 03:52:51;;;;;;;;;;;;;;;;;;5079226;28;19924;-80
2021/08/12 03:55:21;;;;;;;;;;;;;;;;;;5058352;28;19928;-82
2021/08/12 03:57:50;;;;;;;;;;;;;;;;;;5069398;28;19935;-80
2021/08/12 04:00:19;;;;;;;;;;;;;;;;;;5063746;28;19928;-82
2021/08/12 04:02:48;;;;;;;;;;;;;;;;;;5072522;28;19923;-83
2021/08/12 04:05:18;;;;;;;;;;;;;;;;;;5061740;28;20293;-81
2021/08/12 04:07:48;;;;;;;;;;;;;;;;;;5073327;28;19935;-81
2021/08/12 04:10:22;;;;;;;;;;;;;;;;;;5079156;28;19924;-86
2021/08/12 04:12:51;;;;;;;;;;;;;;;;;;5049220;28;20461;-82
2021/08/12 04:15:20;;;;;;;;;;;;;;;;;;5067207;28;20407;-83
2021/08/12 04:17:49;;;;;;;;;;;;;;;;;;5084456;28;19935;-84
2021/08/12 04:20:17;;;;;;;;;;;;;;;;;;5061167;28;19931;-83
2021/08/12 04:22:46;;;;;;;;;;;;;;;;;;5061878;28;19931;-83
2021/08/12 04:25:15;;;;;;;;;;;;;;;;;;5073618;28;19925;-82
2021/08/12 04:27:44;;;;;;;;;;;;;;;;;;5078197;28;19925;-83
2021/08/12 04:30:13;;;;;;;;;;;;;;;;;;5061881;28;19931;-84
2021/08/12 04:32:41;;;;;;;;;;;;;;;;;;5058377;28;19946;-82
2021/08/12 04:35:10;;;;;;;;;;;;;;;;;;5051572;28;19931;-84
2021/08/12 04:37:42;;;;;;;;;;;;;;;;;;5060014;28;19931;-81
2021/08/12 04:40:12;;;;;;;;;;;;;;;;;;5062887;28;19929;-83
2021/08/12 04:42:40;;;;;;;;;;;;;;;;;;5054682;28;19938;-84
2021/08/12 04:45:11;;;;;;;;;;;;;;;;;;5048811;28;19929;-84
2021/08/12 04:47:39;;;;;;;;;;;;;;;;;;5054516;28;20398;-84
2021/08/12 04:50:08;;;;;;;;;;;;;;;;;;5061327;28;19943;-86
2021/08/12 04:52:38;;;;;;;;;;;;;;;;;;5069134;28;19923;-85
2021/08/12 04:55:08;;;;;;;;;;;;;;;;;;5058923;28;19931;-85
2021/08/12 04:57:37;;;;;;;;;;;;;;;;;;5053717;28;19925;-85
2021/08/12 05:00:06;;;;;;;;;;;;;;;;;;5061420;28;19924;-88
2021/08/12 05:02:36;;;;;;;;;;;;;;;;;;5054168;28;19935;-88
2021/08/12 05:05:05;;;;;;;;;;;;;;;;;;5058159;28;19925;-83
2021/08/12 05:07:33;;;;;;;;;;;;;;;;;;5056755;28;20394;-84
2021/08/12 05:10:02;;;;;;;;;;;;;;;;;;5057931;28;19928;-84
2021/08/12 05:12:31;;;;;;;;;;;;;;;;;;5058870;28;19932;-85
2021/08/12 05:15:01;;;;;;;;;;;;;;;;;;5060099;28;19932;-83
2021/08/12 05:17:31;;;;;;;;;;;;;;;;;;5091335;28;19923;-83
2021/08/12 05:20:00;;;;;;;;;;;;;;;;;;5069477;28;20397;-85
2021/08/12 05:22:29;;;;;;;;;;;;;;;;;;5057517;28;19924;-84
2021/08/12 05:24:58;;;;;;;;;;;;;;;;;;5059152;28;19924;-83
2021/08/12 05:27:27;;;;;;;;;;;;;;;;;;5053722;28;20306;-83
2021/08/12 05:29:55;;;;;;;;;;;;;;;;;;5081941;28;19986;-83
2021/08/12 05:32:28;;;;;;;;;;;;;;;;;;5053013;28;19924;-84
2021/08/12 05:34:56;;;;;;;;;;;;;;;;;;5049784;28;20301;-84
2021/08/12 05:37:25;;;;;;;;;;;;;;;;;;5062041;28;19924;-86
2021/08/12 05:39:54;;;;;;;;;;;;;;;;;;5057029;28;19932;-84
2021/08/12 05:42:23;;;;;;;;;;;;;;;;;;5074628;28;19924;-84
2021/08/12 05:44:51;;;;;;;;;;;;;;;;;;5061366;28;19935;-85
2021/08/12 05:47:20;;;;;;;;;;;;;;;;;;5048481;28;19925;-84
2021/08/12 05:49:48;;;;;;;;;;;;;;;;;;5062677;28;19928;-85
2021/08/12 05:52:16;;;;;;;;;;;;;;;;;;5058069;28;19924;-83
2021/08/12 05:54:46;;;;;;;;;;;;;;;;;;5080010;28;19932;-83
2021/08/12 05:57:15;;;;;;;;;;;;;;;;;;5089913;28;19931;-83
2021/08/12 05:59:44;;;;;;;;;;;;;;;;;;5057428;28;19931;-83
2021/08/12 06:02:12;;;;;;;;;;;;;;;;;;5050134;28;19932;-85
2021/08/12 06:04:43;;;;;;;;;;;;;;;;;;5077010;28;19919;-86
2021/08/12 06:07:14;;;;;;;;;;;;;;;;;;5086751;28;19915;-83
2021/08/12 06:09:43;;;;;;;;;;;;;;;;;;5091146;28;19931;-84
2021/08/12 06:12:13;;;;;;;;;;;;;;;;;;5085557;28;19930;-86
2021/08/12 06:14:41;;;;;;;;;;;;;;;;;;5079137;28;19928;-82
2021/08/12 06:17:10;;;;;;;;;;;;;;;;;;5077306;28;20230;-83
2021/08/12 06:19:41;;;;;;;;;;;;;;;;;;5079814;28;19923;-86
2021/08/12 06:22:09;;;;;;;;;;;;;;;;;;5088718;28;19934;-87
2021/08/12 06:24:37;;;;;;;;;;;;;;;;;;5076960;28;19914;-88
2021/08/12 06:27:08;;;;;;;;;;;;;;;;;;5090367;28;19912;-88
2021/08/12 06:29:39;;;;;;;;;;;;;;;;;;5081918;28;19920;-88
2021/08/12 06:32:08;;;;;;;;;;;;;;;;;;5082485;28;19912;-87
2021/08/12 06:34:36;;;;;;;;;;;;;;;;;;5077821;28;20296;-86
2021/08/12 06:37:05;;;;;;;;;;;;;;;;;;5084142;28;19912;-84
2021/08/12 06:39:33;;;;;;;;;;;;;;;;;;5089820;28;19919;-85
2021/08/12 06:42:04;;;;;;;;;;;;;;;;;;5079214;28;19933;-86
2021/08/12 06:44:53;;;;;;;;;;;;;;;;;;5088279;28;19915;-87
2021/08/12 06:47:22;;;;;;;;;;;;;;;;;;5101621;28;19935;-86
2021/08/12 06:49:53;;;;;;;;;;;;;;;;;;5107438;28;19924;-86
2021/08/12 06:52:22;;;;;;;;;;;;;;;;;;5080842;28;19928;-86
2021/08/12 06:54:50;;;;;;;;;;;;;;;;;;5084310;28;19912;-85
2021/08/12 06:57:19;;;;;;;;;;;;;;;;;;5097414;28;19924;-83
2021/08/12 06:59:48;;;;;;;;;;;;;;;;;;5106707;28;19924;-85
2021/08/12 07:02:19;;;;;;;;;;;;;;;;;;5088768;28;19912;-86
2021/08/12 07:04:48;;;;;;;;;;;;;;;;;;5087831;28;19923;-83
2021/08/12 07:07:17;;;;;;;;;;;;;;;;;;5073196;28;20048;-85
2021/08/12 07:09:47;;;;;;;;;;;;;;;;;;5102960;28;20260;-85
2021/08/12 07:12:15;;;;;;;;;;;;;;;;;;5091227;28;19907;-84
2021/08/12 07:14:43;;;;;;;;;;;;;;;;;;5085602;28;19928;-84
2021/08/12 07:17:12;;;;;;;;;;;;;;;;;;5104920;28;19922;-84
2021/08/12 07:19:41;;;;;;;;;;;;;;;;;;5114243;28;19912;-85
2021/08/12 07:22:10;;;;;;;;;;;;;;;;;;5078936;28;19912;-85
2021/08/12 07:24:38;;;;;;;;;;;;;;;;;;5090271;28;19912;-85
2021/08/12 07:27:06;;;;;;;;;;;;;;;;;;5104413;28;19911;-86
2021/08/12 07:29:35;;;;;;;;;;;;;;;;;;5110561;28;19920;-85
2021/08/12 07:32:03;;;;;;;;;;;;;;;;;;5117852;28;19912;-85
2021/08/12 07:34:38;;;;;;;;;;;;;;;;;;5117487;28;19922;-85
2021/08/12 07:37:08;;;;;;;;;;;;;;;;;;5097419;28;19934;-84
2021/08/12 07:39:37;;;;;;;;;;;;;;;;;;5093339;28;19944;-85
2021/08/12 07:42:06;;;;;;;;;;;;;;;;;;5112032;28;19932;-85
2021/08/12 07:44:35;;;;;;;;;;;;;;;;;;5072447;28;19942;-85
2021/08/12 07:47:03;;;;;;;;;;;;;;;;;;5096713;28;19934;-84
2021/08/12 07:49:31;;;;;;;;;;;;;;;;;;5113090;28;19912;-84
2021/08/12 07:51:59;;;;;;;;;;;;;;;;;;5099531;28;19928;-84
2021/08/12 07:54:29;;;;;;;;;;;;;;;;;;5080572;28;19935;-84
2021/08/12 07:56:58;;;;;;;;;;;;;;;;;;5099842;28;19912;-84
2021/08/12 07:59:26;;;;;;;;;;;;;;;;;;5076738;28;19938;-83
2021/08/12 08:01:54;;;;;;;;;;;;;;;;;;5114104;28;19916;-85
2021/08/12 08:04:23;;;;;;;;;;;;;;;;;;5067949;28;19924;-81
2021/08/12 08:06:51;;;;;;;;;;;;;;;;;;5063946;28;19943;-81
2021/08/12 08:09:19;;;;;;;;;;;;;;;;;;5048348;28;19931;-82
2021/08/12 08:11:49;;;;;;;;;;;;;;;;;;5054632;28;19925;-83
2021/08/12 08:14:17;;;;;;;;;;;;;;;;;;5057350;28;20337;-81
2021/08/12 08:16:46;;;;;;;;;;;;;;;;;;5078243;28;19931;-81
2021/08/12 08:19:17;;;;;;;;;;;;;;;;;;5047767;28;20417;-81
2021/08/12 08:21:45;;;;;;;;;;;;;;;;;;5069912;28;20417;-81
2021/08/12 08:24:13;;;;;;;;;;;;;;;;;;5071766;28;20378;-81
2021/08/12 08:26:41;;;;;;;;;;;;;;;;;;5066005;28;19935;-81
2021/08/12 08:29:11;;;;;;;;;;;;;;;;;;5083441;28;19925;-81
2021/08/12 08:31:39;;;;;;;;;;;;;;;;;;5067658;28;19924;-81
2021/08/12 08:34:08;;;;;;;;;;;;;;;;;;5065912;28;19924;-82
2021/08/12 08:36:36;;;;;;;;;;;;;;;;;;5063497;28;19928;-82
2021/08/12 08:39:04;;;;;;;;;;;;;;;;;;5063623;28;20387;-82
2021/08/12 08:41:32;;;;;;;;;;;;;;;;;;5075920;28;19931;-84
2021/08/12 08:44:01;;;;;;;;;;;;;;;;;;5064675;28;19932;-82
2021/08/12 08:46:31;;;;;;;;;;;;;;;;;;5076308;28;19928;-82
2021/08/12 08:48:59;;;;;;;;;;;;;;;;;;5068691;28;19948;-82
2021/08/12 08:51:28;;;;;;;;;;;;;;;;;;5056558;28;19931;-82
2021/08/12 08:53:56;;;;;;;;;;;;;;;;;;5056728;28;19928;-82
2021/08/12 08:56:24;;;;;;;;;;;;;;;;;;5072912;28;20416;-82
2021/08/12 08:58:52;;;;;;;;;;;;;;;;;;5055905;28;20390;-82
2021/08/12 09:01:21;;;;;;;;;;;;;;;;;;5078733;28;20298;-81
2021/08/12 09:03:50;;;;;;;;;;;;;;;;;;5064491;28;19928;-82
2021/08/12 09:06:19;;;;;;;;;;;;;;;;;;5065146;28;19939;-81
2021/08/12 09:08:49;;;;;;;;;;;;;;;;;;5060371;28;23315;-82
2021/08/12 09:11:21;;;;;;;;;;;;;;;;;;5057204;28;19931;-82
2021/08/12 09:13:49;;;;;;;;;;;;;;;;;;5088108;28;20116;-81
2021/08/12 09:16:30;;;;;;;;;;;;;;;;;;5068045;28;19924;-83
2021/08/12 09:19:21;;;;;;;;;;;;;;;;;;5080431;27;19935;-82
2021/08/12 09:21:50;;;;;;;;;;;;;;;;;;5047590;28;19936;-83
2021/08/12 09:24:18;;;;;;;;;;;;;;;;;;5023760;28;19933;-83
2021/08/12 09:26:46;;;;;;;;;;;;;;;;;;5048201;28;19926;-84
2021/08/12 09:29:26;;;;;;;;;;;;;;;;;;5026594;28;19934;-84
2021/08/12 09:31:55;;;;;;;;;;;;;;;;;;5029288;28;19926;-83
2021/08/12 09:34:25;;;;;;;;;;;;;;;;;;5018287;28;20029;-82
2021/08/12 09:37:03;;;;;;;;;;;;;;;;;;5018137;28;20498;-82
2021/08/12 09:39:31;;;;;;;;;;;;;;;;;;5031770;28;19949;-83
2021/08/12 09:42:00;;;;;;;;;;;;;;;;;;5030711;28;19933;-84
2021/08/12 09:44:29;;;;;;;;;;;;;;;;;;5052257;28;19933;-82
2021/08/12 09:46:58;;;;;;;;;;;;;;;;;;5021605;28;19929;-82
2021/08/12 09:49:28;;;;;;;;;;;;;;;;;;5038463;28;19925;-83
2021/08/12 09:51:57;;;;;;;;;;;;;;;;;;5035277;28;19914;-84
2021/08/12 09:54:28;;;;;;;;;;;;;;;;;;5018830;28;19925;-83
2021/08/12 09:56:57;;;;;;;;;;;;;;;;;;5038285;28;19926;-84
2021/08/12 09:59:26;;;;;;;;;;;;;;;;;;5045676;28;19925;-83
2021/08/12 10:02:11;;;;;;;;;;;;;;;;;;5044411;28;19926;-83
2021/08/12 10:04:41;;;;;;;;;;;;;;;;;;5047519;28;20068;-84
2021/08/12 10:07:10;;;;;;;;;;;;;;;;;;5034843;28;19925;-84
2021/08/12 10:09:41;;;;;;;;;;;;;;;;;;5038012;28;19929;-83
2021/08/12 10:12:10;;;;;;;;;;;;;;;;;;5035771;28;19929;-84
2021/08/12 10:14:38;;;;;;;;;;;;;;;;;;5024509;28;19925;-83
2021/08/12 10:17:07;;;;;;;;;;;;;;;;;;5020285;28;19933;-84
2021/08/12 10:19:35;;;;;;;;;;;;;;;;;;5034744;28;19925;-84
2021/08/12 10:22:05;;;;;;;;;;;;;;;;;;5027741;28;19929;-85
2021/08/12 10:24:33;;;;;;;;;;;;;;;;;;5018160;28;19930;-83
2021/08/12 10:27:02;;;;;;;;;;;;;;;;;;5032681;28;20407;-85
2021/08/12 10:29:31;;;;;;;;;;;;;;;;;;5024253;28;19937;-84
2021/08/12 10:31:59;;;;;;;;;;;;;;;;;;5012478;28;20314;-84
2021/08/12 10:34:28;;;;;;;;;;;;;;;;;;5046092;28;20331;-84
2021/08/12 10:36:56;;;;;;;;;;;;;;;;;;5025027;28;19925;-85
2021/08/12 10:39:26;;;;;;;;;;;;;;;;;;5007827;28;19930;-84
2021/08/12 10:41:54;;;;;;;;;;;;;;;;;;5005018;28;19929;-85
2021/08/12 10:44:22;;;;;;;;;;;;;;;;;;5012860;28;19936;-85
2021/08/12 10:46:51;;;;;;;;;;;;;;;;;;5013214;28;20303;-85
2021/08/12 10:49:29;;;;;;;;;;;;;;;;;;5031787;28;19925;-86
2021/08/12 10:52:01;;;;;;;;;;;;;;;;;;5024269;28;19925;-86
2021/08/12 10:54:31;;;;;;;;;;;;;;;;;;5026200;28;19932;-87
2021/08/12 10:57:15;;;;;;;;;;;;;;;;;;5024694;28;20434;-84
2021/08/12 10:59:44;;;;;;;;;;;;;;;;;;5017379;28;19925;-84
2021/08/12 11:02:39;;;;;;;;;;;;;;;;;;5003333;28;19948;-84
2021/08/12 11:05:08;;;;;;;;;;;;;;;;;;4993198;28;19940;-83
2021/08/12 11:07:46;;;;;;;;;;;;;;;;;;5000146;28;20438;-83
2021/08/12 11:10:16;;;;;;;;;;;;;;;;;;5022819;28;20299;-82
2021/08/12 11:13:03;;;;;;;;;;;;;;;;;;5000039;28;19930;-82
2021/08/12 11:15:50;;;;;;;;;;;;;;;;;;5005961;28;19932;-82
2021/08/12 11:18:19;;;;;;;;;;;;;;;;;;5022441;28;19926;-81
2021/08/12 11:20:47;;;;;;;;;;;;;;;;;;5016979;28;19932;-81
2021/08/12 11:23:39;;;;;;;;;;;;;;;;;;5010104;28;19925;-81
2021/08/12 11:26:08;;;;;;;;;;;;;;;;;;5015210;28;19948;-81
2021/08/12 11:28:50;;;;;;;;;;;;;;;;;;5017218;28;19932;-81
2021/08/12 11:31:36;;;;;;;;;;;;;;;;;;5017324;28;19929;-82
2021/08/12 11:34:06;;;;;;;;;;;;;;;;;;5008423;28;20303;-82
2021/08/12 11:36:35;;;;;;;;;;;;;;;;;;5025579;28;19926;-82
2021/08/12 11:39:04;;;;;;;;;;;;;;;;;;5018162;28;19925;-82
2021/08/12 11:41:37;;;;;;;;;;;;;;;;;;5017509;28;19926;-82
2021/08/12 11:44:09;;;;;;;;;;;;;;;;;;5012633;28;19936;-82
2021/08/12 11:46:38;;;;;;;;;;;;;;;;;;5019327;28;19926;-82
2021/08/12 11:49:06;;;;;;;;;;;;;;;;;;5007562;28;19926;-83
2021/08/12 11:51:35;;;;;;;;;;;;;;;;;;5013596;28;20300;-80
2021/08/12 11:54:03;;;;;;;;;;;;;;;;;;5032889;28;19932;-81
2021/08/12 11:56:35;;;;;;;;;;;;;;;;;;5009989;28;19930;-82
2021/08/12 11:59:05;;;;;;;;;;;;;;;;;;5017680;28;19932;-82
2021/08/12 12:01:34;;;;;;;;;;;;;;;;;;5002688;28;20399;-83
2021/08/12 12:04:03;;;;;;;;;;;;;;;;;;5022957;28;19925;-83
2021/08/12 12:06:36;;;;;;;;;;;;;;;;;;5040820;28;19925;-83
2021/08/12 12:09:20;;;;;;;;;;;;;;;;;;5007801;28;19925;-84
2021/08/12 12:11:49;;;;;;;;;;;;;;;;;;5023692;28;19929;-86
2021/08/12 12:14:22;;;;;;;;;;;;;;;;;;5030732;28;20490;-87
2021/08/12 12:17:10;;;;;;;;;;;;;;;;;;5020139;28;19925;-86
2021/08/12 12:19:55;;;;;;;;;;;;;;;;;;5005196;28;20413;-85
2021/08/12 12:22:23;;;;;;;;;;;;;;;;;;5012478;28;19925;-86
2021/08/12 12:24:52;;;;;;;;;;;;;;;;;;5020798;28;19933;-86
2021/08/12 12:27:21;;;;;;;;;;;;;;;;;;5011621;28;19925;-86
2021/08/12 12:29:51;;;;;;;;;;;;;;;;;;5005904;28;20028;-85
2021/08/12 12:32:20;;;;;;;;;;;;;;;;;;5004703;28;19932;-86
2021/08/12 12:34:52;;;;;;;;;;;;;;;;;;5009477;28;19925;-86
2021/08/12 12:37:21;;;;;;;;;;;;;;;;;;5032865;28;19933;-86
2021/08/12 12:39:49;;;;;;;;;;;;;;;;;;5016565;28;19948;-85
2021/08/12 12:42:33;;;;;;;;;;;;;;;;;;5024587;28;19929;-86
2021/08/12 12:45:05;;;;;;;;;;;;;;;;;;5017447;28;19929;-86
2021/08/12 12:47:34;;;;;;;;;;;;;;;;;;5023693;28;19932;-86
2021/08/12 12:50:06;;;;;;;;;;;;;;;;;;5004049;28;19925;-86
2021/08/12 12:52:52;;;;;;;;;;;;;;;;;;5013528;28;19932;-86
2021/08/12 12:55:21;;;;;;;;;;;;;;;;;;5024338;28;19925;-86
2021/08/12 12:57:49;;;;;;;;;;;;;;;;;;5009947;28;19925;-86
2021/08/12 13:00:27;;;;;;;;;;;;;;;;;;5006526;28;19935;-86
2021/08/12 13:02:56;;;;;;;;;;;;;;;;;;5013429;28;19926;-86
2021/08/12 13:05:24;;;;;;;;;;;;;;;;;;5008152;28;19925;-86
2021/08/12 13:08:07;;;;;;;;;;;;;;;;;;5021252;28;19926;-86
2021/08/12 13:10:36;;;;;;;;;;;;;;;;;;5012169;28;19940;-86
2021/08/12 13:13:04;;;;;;;;;;;;;;;;;;5015128;28;19925;-85
2021/08/12 13:15:35;;;;;;;;;;;;;;;;;;5020069;28;19940;-86
2021/08/12 13:18:04;;;;;;;;;;;;;;;;;;5039430;28;20309;-86
2021/08/12 13:20:39;;;;;;;;;;;;;;;;;;5000740;28;19932;-85
2021/08/12 13:23:08;;;;;;;;;;;;;;;;;;5014484;28;19935;-87
2021/08/12 13:25:36;;;;;;;;;;;;;;;;;;5019628;28;20311;-85
2021/08/12 13:28:04;;;;;;;;;;;;;;;;;;5025025;28;20383;-86
2021/08/12 13:30:35;;;;;;;;;;;;;;;;;;5015667;28;19933;-86
2021/08/12 13:33:22;;;;;;;;;;;;;;;;;;5001057;28;20302;-85
2021/08/12 13:35:51;;;;;;;;;;;;;;;;;;4995062;28;19925;-86
2021/08/12 13:38:19;;;;;;;;;;;;;;;;;;5004782;28;19925;-85
2021/08/12 13:40:48;;;;;;;;;;;;;;;;;;4999400;28;19936;-83
2021/08/12 13:43:16;;;;;;;;;;;;;;;;;;5030235;28;19949;-85
2021/08/12 13:45:46;;;;;;;;;;;;;;;;;;5003679;28;19925;-85
2021/08/12 13:48:14;;;;;;;;;;;;;;;;;;4998632;28;19925;-85
2021/08/12 13:50:43;;;;;;;;;;;;;;;;;;4997992;28;19948;-85
2021/08/12 13:53:11;;;;;;;;;;;;;;;;;;5016748;28;20406;-85
2021/08/12 13:55:39;;;;;;;;;;;;;;;;;;5017269;28;19926;-85
2021/08/12 13:58:07;;;;;;;;;;;;;;;;;;5018095;28;19937;-85
2021/08/12 14:00:35;;;;;;;;;;;;;;;;;;5019166;28;20291;-85
2021/08/12 14:03:06;;;;;;;;;;;;;;;;;;5014589;28;19951;-86
2021/08/12 14:05:34;;;;;;;;;;;;;;;;;;5008963;28;19932;-86
2021/08/12 14:08:02;;;;;;;;;;;;;;;;;;5022474;28;19925;-85
2021/08/12 14:10:30;;;;;;;;;;;;;;;;;;5013357;28;19933;-87
2021/08/12 14:12:59;;;;;;;;;;;;;;;;;;5013611;28;19935;-87
2021/08/12 14:15:27;;;;;;;;;;;;;;;;;;5024300;28;19932;-86
2021/08/12 14:17:55;;;;;;;;;;;;;;;;;;5007161;28;19932;-85
2021/08/12 14:20:25;;;;;;;;;;;;;;;;;;5020356;28;19945;-85
2021/08/12 14:22:53;;;;;;;;;;;;;;;;;;5031913;28;19932;-84
2021/08/12 14:25:21;;;;;;;;;;;;;;;;;;5003619;28;19940;-83
2021/08/12 14:27:50;;;;;;;;;;;;;;;;;;5019742;28;19932;-84
2021/08/12 14:30:18;;;;;;;;;;;;;;;;;;5010147;28;19929;-83
2021/08/12 14:32:46;;;;;;;;;;;;;;;;;;5042710;28;19924;-83
2021/08/12 14:35:15;;;;;;;;;;;;;;;;;;5024064;28;19925;-83
2021/08/12 14:37:44;;;;;;;;;;;;;;;;;;5052900;28;19925;-83
2021/08/12 14:40:13;;;;;;;;;;;;;;;;;;5035826;28;19925;-82
2021/08/12 14:42:41;;;;;;;;;;;;;;;;;;5022132;28;20310;-83
2021/08/12 14:45:10;;;;;;;;;;;;;;;;;;5054905;28;19936;-83
2021/08/12 14:47:38;;;;;;;;;;;;;;;;;;5050216;28;19929;-82
2021/08/12 14:50:07;;;;;;;;;;;;;;;;;;5018974;28;19948;-82
2021/08/12 14:52:37;;;;;;;;;;;;;;;;;;5028093;28;19932;-82
2021/08/12 14:55:07;;;;;;;;;;;;;;;;;;5020799;28;19931;-84
2021/08/12 14:57:35;;;;;;;;;;;;;;;;;;5028423;28;19931;-83
2021/08/12 15:00:04;;;;;;;;;;;;;;;;;;5005029;28;19936;-82
2021/08/12 15:02:33;;;;;;;;;;;;;;;;;;5021714;28;19929;-82
2021/08/12 15:05:03;;;;;;;;;;;;;;;;;;5037432;28;19925;-84
2021/08/12 15:07:32;;;;;;;;;;;;;;;;;;5012517;28;21701;-83
2021/08/12 15:10:00;;;;;;;;;;;;;;;;;;5014425;28;19933;-83
2021/08/12 15:12:30;;;;;;;;;;;;;;;;;;5015570;28;19932;-85
2021/08/12 15:15:01;;;;;;;;;;;;;;;;;;5014071;28;19936;-82
2021/08/12 15:17:30;;;;;;;;;;;;;;;;;;5015613;28;20314;-82
2021/08/12 15:19:58;;;;;;;;;;;;;;;;;;5013742;28;20231;-82
2021/08/12 15:22:27;;;;;;;;;;;;;;;;;;5021243;28;19925;-82
2021/08/12 15:24:56;;;;;;;;;;;;;;;;;;4995197;28;20311;-83
2021/08/12 15:27:49;;;;;;;;;;;;;;;;;;5013583;28;20391;-82
2021/08/12 15:30:20;;;;;;;;;;;;;;;;;;4991871;28;20017;-82
2021/08/12 15:32:50;;;;;;;;;;;;;;;;;;5010155;28;19944;-82
2021/08/12 15:35:20;;;;;;;;;;;;;;;;;;5028353;28;19940;-82
2021/08/12 15:37:48;;;;;;;;;;;;;;;;;;5010947;28;19925;-82
2021/08/12 15:40:17;;;;;;;;;;;;;;;;;;5007318;28;19940;-81
2021/08/12 15:42:45;;;;;;;;;;;;;;;;;;5007991;28;19925;-82
2021/08/12 15:45:13;;;;;;;;;;;;;;;;;;5012393;28;19936;-82
2021/08/12 15:47:44;;;;;;;;;;;;;;;;;;5005850;28;19948;-82
2021/08/12 15:50:12;;;;;;;;;;;;;;;;;;5011002;28;19925;-82
2021/08/12 15:52:41;;;;;;;;;;;;;;;;;;5010345;28;20005;-83
2021/08/12 15:55:10;;;;;;;;;;;;;;;;;;4997043;28;19925;-83
2021/08/12 15:57:41;;;;;;;;;;;;;;;;;;5002962;28;19997;-83
2021/08/12 16:00:09;;;;;;;;;;;;;;;;;;5029876;28;19925;-82
2021/08/12 16:02:41;;;;;;;;;;;;;;;;;;5010451;28;19936;-82
2021/08/12 16:05:11;;;;;;;;;;;;;;;;;;5013223;28;19929;-82
2021/08/12 16:07:39;;;;;;;;;;;;;;;;;;4985281;28;19936;-82
2021/08/12 16:10:09;;;;;;;;;;;;;;;;;;5026791;28;19925;-84
2021/08/12 16:12:38;;;;;;;;;;;;;;;;;;5003271;28;19936;-84
2021/08/12 16:15:07;;;;;;;;;;;;;;;;;;5025934;28;19932;-84
2021/08/12 16:17:43;;;;;;;;;;;;;;;;;;4991685;28;19933;-84
2021/08/12 16:20:37;;;;;;;;;;;;;;;;;;5020967;28;19932;-85
2021/08/12 16:23:30;;;;;;;;;;;;;;;;;;4992920;28;19932;-84
2021/08/12 16:26:41;;;;;;;;;;;;;;;;;;5025778;28;19936;-85
2021/08/12 16:29:09;;;;;;;;;;;;;;;;;;4994504;28;20323;-85
2021/08/12 16:31:37;;;;;;;;;;;;;;;;;;4999801;28;19925;-84
2021/08/12 16:34:06;;;;;;;;;;;;;;;;;;4987167;28;19929;-84
2021/08/12 16:36:35;;;;;;;;;;;;;;;;;;4991025;28;19926;-85
2021/08/12 16:39:04;;;;;;;;;;;;;;;;;;5020047;28;19940;-84
2021/08/12 16:41:32;;;;;;;;;;;;;;;;;;4998437;28;19934;-85
2021/08/12 16:44:00;;;;;;;;;;;;;;;;;;5005787;28;19932;-83
2021/08/12 16:46:28;;;;;;;;;;;;;;;;;;4996781;28;19944;-83
2021/08/12 16:48:56;;;;;;;;;;;;;;;;;;5002726;28;19925;-83
2021/08/12 16:51:25;;;;;;;;;;;;;;;;;;5024675;28;20402;-83
2021/08/12 16:53:54;;;;;;;;;;;;;;;;;;5017792;28;20425;-84
2021/08/12 16:56:22;;;;;;;;;;;;;;;;;;5008226;28;19936;-83
2021/08/12 16:58:50;;;;;;;;;;;;;;;;;;5024314;28;19929;-83
2021/08/12 17:01:20;;;;;;;;;;;;;;;;;;5002263;28;19929;-83
2021/08/12 17:03:48;;;;;;;;;;;;;;;;;;5024019;28;20152;-84
2021/08/12 17:06:19;;;;;;;;;;;;;;;;;;5015798;28;20394;-83